»·PEaware :: DCM710 KPHX-KPSP

DCM710 :: KPHX-KPSP

FLIGHT INFORMATION

Flight Status: Arrived
Operator: DotCom
More flights by this operator :: More flights under this callsign
Pilot: Ryan C. (15122)
Aircraft: BOMBARDIER BD-100 CHALLENGER 300
(CL30)
More flights by this aircraft type
Origin: KPHX Phoenix Sky Harbor Intl
United States
Destination: KPSP Palm Springs Intl
United States
More flights between these airports :: More routes between these airports
Route: KEENS2 HRRBR CURIV J212 DECAS SBONO1
File this flight plan on PilotEdge
Remarks:
Altitude:
(Current/Filed)
22,000ft
Speed:
(Current/Filed)
400kts
Departed: 24-Apr-19 09:20 PM
Arrived: 24-Apr-19 10:06 PM
Distance/Time
Traveled:
226nm/0:46
Distance/Time
To Go:
Arrived

Flight Plot

Page will automatically refresh every two minutes.

Flight plan parsing failed; only flown route is shown


Map Options




Map Legend


Flown Route
Filed Route
Departure Airport
Arrival Airport
Navaid (VOR, NDB)
Fix

Horizontal Profiles

Position Reports

Time Latitude Longitude Heading Altitude Ground
Speed
24-Apr-19 21:04 33.426481 -112.023502 218 1115ft 0kts
24-Apr-19 21:05 33.426481 -112.023502 218 1115ft 0kts
24-Apr-19 21:06 33.426481 -112.023502 218 1115ft 0kts
24-Apr-19 21:07 33.426481 -112.023502 218 1115ft 0kts
24-Apr-19 21:08 33.426481 -112.023502 218 1115ft 0kts
24-Apr-19 21:09 33.426481 -112.023502 218 1115ft 0kts
24-Apr-19 21:10 33.426481 -112.023502 218 1115ft 0kts
24-Apr-19 21:11 33.426481 -112.023502 218 1115ft 0kts
24-Apr-19 21:12 33.426481 -112.023502 218 1115ft 0kts
24-Apr-19 21:13 33.426481 -112.023502 218 1115ft 0kts
24-Apr-19 21:13 33.426481 -112.023502 218 1115ft 0kts
24-Apr-19 21:15 33.426632 -112.023660 338 1115ft 4kts
24-Apr-19 21:16 33.427742 -112.024685 279 1115ft 6kts
24-Apr-19 21:16 33.427765 -112.026070 270 1115ft 8kts
24-Apr-19 21:17 33.427870 -112.026828 316 1115ft 0kts
24-Apr-19 21:19 33.428844 -112.026760 76 1115ft 6kts
24-Apr-19 21:19 33.428851 -111.998632 90 2060ft 177kts
24-Apr-19 21:20 33.432048 -111.928878 85 6143ft 251kts
24-Apr-19 21:21 33.412711 -111.855265 142 11144ft 266kts
24-Apr-19 21:22 33.354908 -111.883789 266 14958ft 271kts
24-Apr-19 21:23 33.360424 -111.973886 278 18830ft 282kts
24-Apr-19 21:24 33.372066 -112.068257 282 21864ft 307kts
24-Apr-19 21:25 33.389736 -112.187492 282 21892ft 402kts
24-Apr-19 21:26 33.409514 -112.322095 281 21889ft 414kts
24-Apr-19 21:27 33.429248 -112.456976 282 21897ft 410kts
24-Apr-19 21:28 33.448634 -112.591255 280 21902ft 408kts
24-Apr-19 21:29 33.451596 -112.727796 273 21908ft 409kts
24-Apr-19 21:30 33.464628 -112.861428 284 21909ft 405kts
24-Apr-19 21:31 33.488898 -112.992925 284 21908ft 405kts
24-Apr-19 21:32 33.513336 -113.124781 284 21908ft 404kts
24-Apr-19 21:33 33.537555 -113.256065 284 21907ft 404kts
24-Apr-19 21:34 33.561761 -113.388086 284 21907ft 404kts
24-Apr-19 21:35 33.585837 -113.519761 284 21906ft 404kts
24-Apr-19 21:36 33.597289 -113.581145 284 21896ft 404kts
24-Apr-19 21:37 33.632161 -113.768949 284 21856ft 405kts
24-Apr-19 21:38 33.656512 -113.900998 284 21853ft 404kts
24-Apr-19 21:39 33.680590 -114.032250 284 21852ft 404kts
24-Apr-19 21:40 33.704715 -114.164607 284 21852ft 404kts
24-Apr-19 21:41 33.728621 -114.296630 284 21546ft 403kts
24-Apr-19 21:42 33.751578 -114.424224 284 20021ft 381kts
24-Apr-19 21:43 33.772414 -114.545968 275 18480ft 367kts
24-Apr-19 21:44 33.780028 -114.666630 275 16636ft 359kts
24-Apr-19 21:45 33.786955 -114.784535 275 14947ft 345kts
24-Apr-19 21:46 33.793436 -114.898265 275 13952ft 339kts
24-Apr-19 21:47 33.799714 -115.010738 275 13045ft 336kts
24-Apr-19 21:48 33.805852 -115.122485 275 12134ft 337kts
24-Apr-19 21:49 33.812057 -115.237421 275 11236ft 350kts
24-Apr-19 21:50 33.818193 -115.353545 275 10921ft 341kts
24-Apr-19 21:51 33.826665 -115.462221 291 10900ft 342kts
24-Apr-19 21:52 33.862062 -115.575130 292 10908ft 346kts
24-Apr-19 21:53 33.896588 -115.683019 292 10907ft 348kts
24-Apr-19 21:54 33.911343 -115.789868 268 10618ft 341kts
24-Apr-19 21:55 33.900842 -115.893923 264 9367ft 289kts
24-Apr-19 21:56 33.890252 -115.987746 264 8148ft 276kts
24-Apr-19 21:57 33.879870 -116.078299 264 6971ft 271kts
24-Apr-19 21:58 33.863777 -116.165813 253 6940ft 280kts
24-Apr-19 21:59 33.837864 -116.255733 252 6544ft 282kts
24-Apr-19 22:00 33.802897 -116.336786 235 5177ft 263kts
24-Apr-19 22:01 33.761228 -116.400250 250 4281ft 216kts
24-Apr-19 22:02 33.762019 -116.453236 329 3005ft 152kts
24-Apr-19 22:03 33.793886 -116.476049 322 1317ft 118kts
24-Apr-19 22:04 33.818905 -116.498141 323 512ft 108kts
24-Apr-19 22:05 33.832659 -116.510386 325 429ft 24kts
24-Apr-19 22:06 33.832535 -116.512289 227 429ft 1kts
24-Apr-19 22:07 33.832535 -116.512289 227 429ft 0kts

Navigation Log

Ident Type
Flight plan parsing failed, navigation log unavailable